Terminal Aerodrome Forecast
Issued by NWS

Home | Current Version | Previous Version | Text Only | Print | Product List | Glossary On
Versions: 1 2 3 4 5 6 7 8 9 10 11 12 13 14 15 16 17 18 19 20 21 22 23 24 25 26 27 28
068
FTUS44 KEWX 241120
TAFSSF
TAF
KSSF 241120Z 2412/2512 18009KT P6SM BKN023 OVC030
     FM241500 16007KT P6SM VCSH BKN022 OVC035
     FM241800 21010KT P6SM FEW040 SCT250
     FM242300 19005KT P6SM FEW250
     FM251000 33006KT P6SM SKC=

USA.gov is the U.S. government's official web portal to all federal, state and local government web resources and services.